createdAt,value
2022-08-11T00:01:15.383Z,25.45
2022-08-11T00:03:48.768Z,25.49
2022-08-11T00:06:23.972Z,24.99
2022-08-11T00:08:51.886Z,25.21
2022-08-11T00:11:20.034Z,25.45
2022-08-11T00:13:49.379Z,25.46
2022-08-11T00:16:22.611Z,25.82
2022-08-11T00:18:53.188Z,25.40
2022-08-11T00:22:03.051Z,25.59
2022-08-11T00:24:13.136Z,25.11
2022-08-11T00:26:39.991Z,25.14
2022-08-11T00:29:11.589Z,24.97
2022-08-11T00:31:44.006Z,24.84
2022-08-11T00:34:12.728Z,24.84
2022-08-11T00:37:03.092Z,24.32
2022-08-11T00:39:34.308Z,24.50
2022-08-11T00:42:16.095Z,24.36
2022-08-11T00:45:22.675Z,24.46
2022-08-11T00:48:08.192Z,24.71
2022-08-11T00:50:59.081Z,24.82
2022-08-11T00:53:33.970Z,24.52
2022-08-11T00:56:28.636Z,24.94
2022-08-11T00:58:58.456Z,24.84
2022-08-11T01:02:05.845Z,25.12
2022-08-11T01:04:57.467Z,25.17
2022-08-11T01:08:01.868Z,25.20
2022-08-11T01:10:57.436Z,25.49
2022-08-11T01:14:19.605Z,24.99
2022-08-11T01:17:48.383Z,25.30
2022-08-11T01:20:47.678Z,25.23
2022-08-11T01:23:33.931Z,25.55
2022-08-11T01:26:25.167Z,25.46
2022-08-11T01:29:00.756Z,25.45
2022-08-11T01:31:49.148Z,25.80
2022-08-11T01:34:27.940Z,25.39
2022-08-11T01:36:57.041Z,25.45
2022-08-11T01:39:57.965Z,25.48
2022-08-11T01:43:33.448Z,25.26
2022-08-11T01:46:12.420Z,25.55
2022-08-11T01:48:50.028Z,25.39
2022-08-11T01:52:02.099Z,25.51
2022-08-11T01:54:34.701Z,25.65
2022-08-11T01:57:19.752Z,25.55
2022-08-11T01:59:51.454Z,25.19
2022-08-11T02:02:48.623Z,25.29
2022-08-11T02:05:22.055Z,25.31
2022-08-11T02:08:16.756Z,25.22
2022-08-11T02:11:35.147Z,25.29
2022-08-11T02:14:22.950Z,25.33
2022-08-11T02:17:13.589Z,25.26
2022-08-11T02:20:19.891Z,25.39
2022-08-11T02:23:05.441Z,25.39
2022-08-11T02:25:52.526Z,25.33
2022-08-11T02:28:46.775Z,25.37
2022-08-11T02:32:25.927Z,25.43
2022-08-11T02:35:01.510Z,25.44
2022-08-11T02:37:33.371Z,25.53
2022-08-11T02:40:03.487Z,25.62
2022-08-11T02:42:39.884Z,25.72
2022-08-11T02:45:31.289Z,25.49
2022-08-11T02:48:16.606Z,25.51
2022-08-11T02:51:10.527Z,25.58
2022-08-11T02:53:56.339Z,25.46
2022-08-11T02:56:50.226Z,25.39
2022-08-11T02:59:52.447Z,25.37
2022-08-11T03:02:44.144Z,24.98
2022-08-11T03:05:12.000Z,25.02
2022-08-11T03:08:16.198Z,25.20
2022-08-11T03:11:18.830Z,25.02
2022-08-11T03:14:25.917Z,25.06
2022-08-11T03:17:04.390Z,25.02
2022-08-11T03:19:31.462Z,24.95
2022-08-11T03:22:23.318Z,25.08
2022-08-11T03:24:54.942Z,25.11
2022-08-11T03:27:21.661Z,25.00
2022-08-11T03:30:02.280Z,24.73
2022-08-11T03:33:22.025Z,25.00
2022-08-11T03:36:09.251Z,24.77
2022-08-11T03:38:56.688Z,25.02
2022-08-11T03:42:03.648Z,24.91
2022-08-11T03:45:03.038Z,24.80
2022-08-11T03:47:32.528Z,24.94
2022-08-11T03:50:22.709Z,24.72
2022-08-11T03:53:17.239Z,24.70
2022-08-11T03:56:07.712Z,24.48
2022-08-11T03:58:42.064Z,24.67
2022-08-11T04:01:42.069Z,24.51
2022-08-11T04:04:51.229Z,24.54
2022-08-11T04:07:47.634Z,24.64
2022-08-11T04:10:46.254Z,24.55
2022-08-11T04:13:50.206Z,24.37
2022-08-11T04:16:31.853Z,24.47
2022-08-11T04:19:07.409Z,24.37
2022-08-11T04:21:59.416Z,24.48
2022-08-11T04:25:02.823Z,24.49
2022-08-11T04:27:41.641Z,24.57
2022-08-11T04:30:14.746Z,24.39
2022-08-11T04:32:58.757Z,24.55
2022-08-11T04:35:54.516Z,24.38
2022-08-11T04:38:59.057Z,24.90
2022-08-11T04:42:19.908Z,24.55
2022-08-11T04:44:52.546Z,24.87
2022-08-11T04:48:05.796Z,24.90
2022-08-11T04:51:42.164Z,24.89
2022-08-11T04:54:45.219Z,25.08
2022-08-11T04:58:06.914Z,24.90
2022-08-11T05:01:14.345Z,25.22
2022-08-11T05:04:06.611Z,24.84
2022-08-11T05:06:50.556Z,25.12
2022-08-11T05:09:28.597Z,24.83
2022-08-11T05:12:37.116Z,24.88
2022-08-11T05:15:24.471Z,25.09
2022-08-11T05:18:27.860Z,25.45
2022-08-11T05:21:16.345Z,25.41
2022-08-11T05:24:13.821Z,25.22
2022-08-11T05:27:11.349Z,25.19
2022-08-11T05:30:10.766Z,25.59
2022-08-11T05:33:01.941Z,25.61
2022-08-11T05:36:03.155Z,25.83
2022-08-11T05:38:52.960Z,25.41
2022-08-11T05:41:41.997Z,26.03
2022-08-11T05:44:29.135Z,25.42
2022-08-11T05:47:15.990Z,25.27
2022-08-11T05:50:08.785Z,25.25
2022-08-11T05:53:04.585Z,25.83
2022-08-11T05:56:01.886Z,25.78
2022-08-11T05:58:42.558Z,25.69
2022-08-11T06:01:12.102Z,26.04
2022-08-11T06:04:01.376Z,25.79
2022-08-11T06:06:29.430Z,25.08
2022-08-11T06:08:58.139Z,25.45
2022-08-11T06:11:43.256Z,25.57
2022-08-11T06:14:13.161Z,25.56
2022-08-11T06:16:43.037Z,26.03
2022-08-11T06:19:10.533Z,25.92
2022-08-11T06:21:38.357Z,25.54
2022-08-11T06:24:15.499Z,25.90
2022-08-11T06:27:11.342Z,25.80
2022-08-11T06:29:47.733Z,26.34
2022-08-11T06:32:15.999Z,26.53
2022-08-11T06:34:48.648Z,26.79
2022-08-11T06:37:27.340Z,26.79
2022-08-11T06:40:18.609Z,26.51
2022-08-11T06:43:23.698Z,26.43
2022-08-11T06:46:05.956Z,26.60
2022-08-11T06:48:34.302Z,26.71
2022-08-11T06:51:12.499Z,26.67
2022-08-11T06:53:57.557Z,26.61
2022-08-11T06:57:26.470Z,26.86
2022-08-11T07:00:04.761Z,26.88
2022-08-11T07:02:37.189Z,26.99
2022-08-11T07:05:10.645Z,27.35
2022-08-11T07:08:34.444Z,27.88
2022-08-11T07:11:48.643Z,27.86
2022-08-11T07:14:39.692Z,27.84
2022-08-11T07:17:11.252Z,27.90
2022-08-11T07:20:01.951Z,28.31
2022-08-11T07:22:51.222Z,28.30
2022-08-11T07:25:37.141Z,28.10
2022-08-11T07:28:29.484Z,28.19
2022-08-11T07:31:04.778Z,28.53
2022-08-11T07:34:07.164Z,28.58
2022-08-11T07:36:31.380Z,28.57
2022-08-11T07:39:00.355Z,28.28
2022-08-11T07:41:31.133Z,28.58
2022-08-11T07:44:09.273Z,28.25
2022-08-11T07:46:59.922Z,28.70
2022-08-11T07:49:50.163Z,28.32
2022-08-11T07:52:26.959Z,28.79
2022-08-11T07:54:56.017Z,28.58
2022-08-11T07:58:14.667Z,28.50
2022-08-11T08:00:51.612Z,29.06
2022-08-11T08:03:38.972Z,28.79
2022-08-11T08:06:40.707Z,29.27
2022-08-11T08:09:27.494Z,29.23
2022-08-11T08:12:14.413Z,29.33
2022-08-11T08:15:01.223Z,29.51
2022-08-11T08:18:20.996Z,29.18
2022-08-11T08:20:45.619Z,29.60
2022-08-11T08:23:13.734Z,29.64
2022-08-11T08:25:43.189Z,29.34
2022-08-11T08:28:14.628Z,29.75
2022-08-11T08:30:50.783Z,29.60
2022-08-11T08:33:26.585Z,29.09
2022-08-11T08:36:16.915Z,29.48
2022-08-11T08:38:48.795Z,30.05
2022-08-11T08:41:22.977Z,29.87
2022-08-11T08:43:53.714Z,30.16
2022-08-11T08:46:28.024Z,29.68
2022-08-11T08:48:55.540Z,30.14
2022-08-11T08:52:01.492Z,30.20
2022-08-11T08:54:34.160Z,30.24
2022-08-11T08:57:05.361Z,30.06
2022-08-11T08:59:49.016Z,29.58
2022-08-11T09:02:33.998Z,30.42
2022-08-11T09:05:04.577Z,30.95
2022-08-11T09:07:38.822Z,31.21
2022-08-11T09:10:10.823Z,31.16
2022-08-11T09:12:40.784Z,31.14
2022-08-11T09:15:10.534Z,31.63
2022-08-11T09:17:42.047Z,31.70
2022-08-11T09:20:13.233Z,31.17
2022-08-11T09:26:11.091Z,29.55
2022-08-11T09:28:38.207Z,29.81
2022-08-11T09:31:06.854Z,30.25
2022-08-11T09:33:34.064Z,30.39
2022-08-11T09:36:24.037Z,31.04
2022-08-11T09:39:11.564Z,30.42
2022-08-11T09:41:55.615Z,30.72
2022-08-11T09:44:46.108Z,31.05
2022-08-11T09:47:21.974Z,31.13
2022-08-11T09:49:50.643Z,30.85
2022-08-11T09:52:18.474Z,31.04
2022-08-11T09:54:50.232Z,30.46
2022-08-11T09:57:40.298Z,30.67
2022-08-11T10:00:13.275Z,30.42
2022-08-11T10:02:46.307Z,30.96
2022-08-11T10:05:35.855Z,30.92
2022-08-11T10:08:04.409Z,31.41
2022-08-11T10:10:35.941Z,31.33
2022-08-11T10:13:44.010Z,31.54
2022-08-11T10:16:15.317Z,31.68
2022-08-11T10:18:51.611Z,31.47
2022-08-11T10:21:28.461Z,31.82
2022-08-11T10:24:17.699Z,32.39
2022-08-11T10:26:55.182Z,32.63
2022-08-11T10:29:44.417Z,33.32
2022-08-11T10:32:32.779Z,32.79
2022-08-11T10:35:09.192Z,32.85
2022-08-11T10:38:07.220Z,32.75
2022-08-11T10:40:25.716Z,32.67
2022-08-11T10:43:10.548Z,32.91
2022-08-11T10:45:57.737Z,33.04
2022-08-11T10:48:27.953Z,33.13
2022-08-11T10:51:14.546Z,33.57
2022-08-11T10:54:07.156Z,33.78
2022-08-11T10:56:59.014Z,32.60
2022-08-11T10:59:28.309Z,32.96
2022-08-11T11:01:55.522Z,33.49
2022-08-11T11:04:45.585Z,33.70
2022-08-11T11:07:24.970Z,33.62
2022-08-11T11:09:58.128Z,33.73
2022-08-11T11:12:50.195Z,33.66
2022-08-11T11:15:38.921Z,33.10
2022-08-11T11:18:18.799Z,33.71
2022-08-11T11:20:52.345Z,33.49
2022-08-11T11:23:34.113Z,33.32
2022-08-11T11:26:27.581Z,33.22
2022-08-11T11:29:09.788Z,33.63
2022-08-11T11:32:00.848Z,33.16
2022-08-11T11:35:18.134Z,33.51
2022-08-11T11:37:56.182Z,33.25
2022-08-11T11:40:32.347Z,32.77
2022-08-11T11:43:00.384Z,33.43
2022-08-11T11:45:27.498Z,33.19
2022-08-11T11:47:58.353Z,33.46
2022-08-11T11:50:34.455Z,33.00
2022-08-11T11:53:05.923Z,32.78
2022-08-11T11:55:35.113Z,33.16
2022-08-11T11:58:22.911Z,32.94
2022-08-11T12:01:11.044Z,32.69
2022-08-11T12:03:39.547Z,32.73
2022-08-11T12:06:08.574Z,32.77
2022-08-11T12:08:36.802Z,32.57
2022-08-11T12:11:24.954Z,32.59
2022-08-11T12:13:58.753Z,32.86
2022-08-11T12:16:33.230Z,32.79
2022-08-11T12:19:11.954Z,33.00
2022-08-11T12:22:03.460Z,32.94
2022-08-11T12:24:50.903Z,32.65
2022-08-11T12:27:24.228Z,32.11
2022-08-11T12:30:01.013Z,31.75
2022-08-11T12:32:31.280Z,31.91
2022-08-11T12:34:58.354Z,31.99
2022-08-11T12:37:31.328Z,32.41
2022-08-11T12:40:49.893Z,32.04
2022-08-11T12:43:38.084Z,32.45
2022-08-11T12:46:23.713Z,33.26
2022-08-11T12:49:16.259Z,33.40
2022-08-11T12:52:11.653Z,32.47
2022-08-11T12:54:57.910Z,32.04
2022-08-11T12:57:51.267Z,32.32
2022-08-11T13:00:37.900Z,32.38
2022-08-11T13:03:27.069Z,32.50
2022-08-11T13:05:57.229Z,33.10
2022-08-11T13:08:25.868Z,32.57
2022-08-11T13:11:13.302Z,32.89
2022-08-11T13:13:54.702Z,32.68
2022-08-11T13:16:28.053Z,33.01
2022-08-11T13:18:57.564Z,33.27
2022-08-11T13:21:26.198Z,33.36
2022-08-11T13:23:59.656Z,33.31
2022-08-11T13:26:43.522Z,32.79
2022-08-11T13:29:17.494Z,32.17
2022-08-11T13:31:45.763Z,32.67
2022-08-11T13:34:13.619Z,32.24
2022-08-11T13:36:41.645Z,32.80
2022-08-11T13:39:09.563Z,32.89
2022-08-11T13:41:39.285Z,32.87
2022-08-11T13:44:12.151Z,33.23
2022-08-11T13:46:40.870Z,33.77
2022-08-11T13:49:12.192Z,34.13
2022-08-11T13:51:40.166Z,34.50
2022-08-11T13:54:10.259Z,34.88
2022-08-11T13:56:39.865Z,34.55
2022-08-11T13:59:10.598Z,34.11
2022-08-11T14:02:19.836Z,34.50
2022-08-11T14:04:37.364Z,34.58
2022-08-11T14:07:08.039Z,33.93
2022-08-11T14:09:41.685Z,34.40
2022-08-11T14:12:36.299Z,35.63
2022-08-11T14:15:10.467Z,35.34
2022-08-11T14:17:47.303Z,35.58
2022-08-11T14:20:39.171Z,35.60
2022-08-11T14:23:07.813Z,35.26
2022-08-11T14:26:00.744Z,35.59
2022-08-11T14:28:34.010Z,36.35
2022-08-11T14:31:05.346Z,36.18
2022-08-11T14:34:00.947Z,36.15
2022-08-11T14:36:23.152Z,36.24
2022-08-11T14:38:50.751Z,36.72
2022-08-11T14:41:37.059Z,36.47
2022-08-11T14:44:44.588Z,36.56
2022-08-11T14:47:23.045Z,36.18
2022-08-11T14:50:09.848Z,35.93
2022-08-11T14:52:49.511Z,35.37
2022-08-11T14:55:37.364Z,35.78
2022-08-11T14:58:05.216Z,36.08
2022-08-11T15:00:34.810Z,35.75
2022-08-11T15:03:10.504Z,35.67
2022-08-11T15:06:02.626Z,36.33
2022-08-11T15:08:53.576Z,35.73
2022-08-11T15:11:49.427Z,35.13
2022-08-11T15:14:38.781Z,34.78
2022-08-11T15:17:10.227Z,34.27
2022-08-11T15:20:00.672Z,34.40
2022-08-11T15:22:46.643Z,33.01
2022-08-11T15:25:14.217Z,33.68
2022-08-11T15:28:02.881Z,33.76
2022-08-11T15:30:49.259Z,34.03
2022-08-11T15:33:37.097Z,34.04
2022-08-11T15:36:27.257Z,34.42
2022-08-11T15:39:07.004Z,34.20
2022-08-11T15:42:03.841Z,34.40
2022-08-11T15:45:02.733Z,34.41
2022-08-11T15:47:37.766Z,33.66
2022-08-11T15:50:11.734Z,33.40
2022-08-11T15:52:49.348Z,33.37
2022-08-11T15:55:17.376Z,33.12
2022-08-11T15:58:06.349Z,32.68
2022-08-11T16:00:58.881Z,32.49
2022-08-11T16:04:06.706Z,32.56
2022-08-11T16:07:00.087Z,32.59
2022-08-11T16:09:47.042Z,32.43
2022-08-11T16:12:23.103Z,32.41
2022-08-11T16:15:11.594Z,32.12
2022-08-11T16:17:44.365Z,32.25
2022-08-11T16:20:14.205Z,31.88
2022-08-11T16:22:55.132Z,31.61
2022-08-11T16:27:03.323Z,31.71
2022-08-11T16:28:20.689Z,31.64
2022-08-11T16:30:49.065Z,31.67
2022-08-11T16:33:48.585Z,31.68
2022-08-11T16:36:24.454Z,31.72
2022-08-11T16:38:53.744Z,31.48
2022-08-11T16:41:42.604Z,31.34
2022-08-11T16:44:37.765Z,31.57
2022-08-11T16:47:08.592Z,31.54
2022-08-11T16:49:38.905Z,31.17
2022-08-11T16:52:12.224Z,31.32
2022-08-11T16:54:44.391Z,31.22
2022-08-11T16:57:44.886Z,31.06
2022-08-11T17:00:15.410Z,31.17
2022-08-11T17:03:04.667Z,30.68
2022-08-11T17:05:55.138Z,30.69
2022-08-11T17:09:04.742Z,30.53
2022-08-11T17:11:56.067Z,30.99
2022-08-11T17:14:35.489Z,31.01
2022-08-11T17:17:14.736Z,31.18
2022-08-11T17:20:38.393Z,30.96
2022-08-11T17:22:56.606Z,30.54
2022-08-11T17:25:28.357Z,31.14
2022-08-11T17:27:56.776Z,31.18
2022-08-11T17:30:45.824Z,31.17
2022-08-11T17:33:33.150Z,30.90
2022-08-11T17:36:02.357Z,30.92
2022-08-11T17:38:30.505Z,31.03
2022-08-11T17:41:23.254Z,30.98
2022-08-11T17:44:12.615Z,30.92
2022-08-11T17:47:03.585Z,30.93
2022-08-11T17:49:37.602Z,30.95
2022-08-11T17:52:25.425Z,31.05
2022-08-11T17:55:13.421Z,31.06
2022-08-11T17:58:00.364Z,30.95
2022-08-11T18:00:28.102Z,31.02
2022-08-11T18:03:16.644Z,30.84
2022-08-11T18:05:46.100Z,30.85
2022-08-11T18:08:32.868Z,30.93
2022-08-11T18:12:11.239Z,30.74
2022-08-11T18:14:27.504Z,30.88
2022-08-11T18:17:13.260Z,30.80
2022-08-11T18:19:59.138Z,30.72
2022-08-11T18:22:52.085Z,30.60
2022-08-11T18:25:46.493Z,30.94
2022-08-11T18:28:35.610Z,30.92
2022-08-11T18:31:23.197Z,30.81
2022-08-11T18:34:13.589Z,30.72
2022-08-11T18:37:20.611Z,30.63
2022-08-11T18:40:14.924Z,30.18
2022-08-11T18:43:02.936Z,29.25
2022-08-11T18:45:52.805Z,29.15
2022-08-11T18:48:55.117Z,29.55
2022-08-11T18:51:42.905Z,29.91
2022-08-11T18:54:30.814Z,30.00
2022-08-11T18:57:20.755Z,29.89
2022-08-11T19:00:08.567Z,29.69
2022-08-11T19:02:57.560Z,29.54
2022-08-11T19:06:31.918Z,30.07
2022-08-11T19:08:55.941Z,30.11
2022-08-11T19:11:44.080Z,30.13
2022-08-11T19:14:31.667Z,30.08
2022-08-11T19:17:44.854Z,30.16
2022-08-11T19:20:29.864Z,30.25
2022-08-11T19:23:16.824Z,30.11
2022-08-11T19:26:03.817Z,30.00
2022-08-11T19:28:51.779Z,29.92
2022-08-11T19:31:43.800Z,29.92
2022-08-11T19:34:33.765Z,29.94
2022-08-11T19:37:23.690Z,29.81
2022-08-11T19:40:12.469Z,29.73
2022-08-11T19:43:00.867Z,29.70
2022-08-11T19:45:52.141Z,29.69
2022-08-11T19:48:43.073Z,29.82
2022-08-11T19:51:30.284Z,28.73
2022-08-11T19:54:17.134Z,29.02
2022-08-11T19:57:03.957Z,28.61
2022-08-11T19:59:51.765Z,28.56
2022-08-11T20:02:37.749Z,28.93
2022-08-11T20:05:25.205Z,29.05
2022-08-11T20:08:12.893Z,29.04
2022-08-11T20:10:59.877Z,29.19
2022-08-11T20:13:46.773Z,28.97
2022-08-11T20:16:38.303Z,28.89
2022-08-11T20:19:26.363Z,28.87
2022-08-11T20:22:34.352Z,28.98
2022-08-11T20:25:21.557Z,28.75
2022-08-11T20:28:08.915Z,28.69
2022-08-11T20:30:55.284Z,28.95
2022-08-11T20:33:42.627Z,28.86
2022-08-11T20:36:29.391Z,28.71
2022-08-11T20:39:17.574Z,28.94
2022-08-11T20:42:05.039Z,28.75
2022-08-11T20:44:51.859Z,28.82
2022-08-11T20:47:59.206Z,28.86
2022-08-11T20:50:45.978Z,28.74
2022-08-11T20:53:35.911Z,28.47
2022-08-11T20:56:28.945Z,28.40
2022-08-11T20:59:18.445Z,27.57
2022-08-11T21:02:10.058Z,28.11
2022-08-11T21:05:00.436Z,28.21
2022-08-11T21:07:56.957Z,28.34
2022-08-11T21:10:53.424Z,27.95
2022-08-11T21:13:43.578Z,27.88
2022-08-11T21:16:35.459Z,27.77
2022-08-11T21:19:59.629Z,27.96
2022-08-11T21:22:59.142Z,27.70
2022-08-11T21:25:54.460Z,27.26
2022-08-11T21:28:40.723Z,27.45
2022-08-11T21:31:28.169Z,27.44
2022-08-11T21:34:15.080Z,27.57
2022-08-11T21:37:03.479Z,27.40
2022-08-11T21:39:50.437Z,27.10
2022-08-11T21:42:38.187Z,27.38
2022-08-11T21:45:26.165Z,27.38
2022-08-11T21:48:14.636Z,27.39
2022-08-11T21:50:59.879Z,27.69
2022-08-11T21:53:46.683Z,27.61
2022-08-11T21:56:33.061Z,27.54
2022-08-11T21:59:20.377Z,27.76
2022-08-11T22:02:12.446Z,27.71
2022-08-11T22:05:00.559Z,27.54
2022-08-11T22:07:47.385Z,27.67
2022-08-11T22:10:40.899Z,27.58
2022-08-11T22:13:30.094Z,27.59
2022-08-11T22:16:16.869Z,27.72
2022-08-11T22:19:04.968Z,27.54
2022-08-11T22:22:02.328Z,27.60
2022-08-11T22:24:50.342Z,27.41
2022-08-11T22:27:36.022Z,27.17
2022-08-11T22:30:21.276Z,26.66
2022-08-11T22:33:07.233Z,27.02
2022-08-11T22:35:54.212Z,27.17
2022-08-11T22:38:40.608Z,27.29
2022-08-11T22:41:26.056Z,26.99
2022-08-11T22:44:11.610Z,26.90
2022-08-11T22:46:57.560Z,26.95
2022-08-11T22:49:57.672Z,27.01
2022-08-11T22:52:46.428Z,27.23
2022-08-11T22:55:33.747Z,27.25
2022-08-11T22:58:21.115Z,27.24
2022-08-11T23:01:08.032Z,27.32
2022-08-11T23:03:54.305Z,27.20
2022-08-11T23:06:41.139Z,27.23
2022-08-11T23:09:29.728Z,27.17
2022-08-11T23:12:16.146Z,26.82
2022-08-11T23:15:02.668Z,27.02
2022-08-11T23:17:49.003Z,27.13
2022-08-11T23:20:44.666Z,27.12
2022-08-11T23:23:36.254Z,27.17
2022-08-11T23:26:22.516Z,27.09
2022-08-11T23:29:07.819Z,27.09
2022-08-11T23:31:54.957Z,27.08
2022-08-11T23:35:03.997Z,27.16
2022-08-11T23:37:51.464Z,26.98
2022-08-11T23:40:36.820Z,26.82
2022-08-11T23:43:22.894Z,26.92
2022-08-11T23:46:08.314Z,26.99
2022-08-11T23:48:56.755Z,26.69
2022-08-11T23:51:43.901Z,26.94
2022-08-11T23:54:33.837Z,27.02
2022-08-11T23:57:23.228Z,27.12
